Latest Weather Observations for Thredbo Top Station

IDN60801

Issued at 7:05 am EDT Monday 26 January 2015 (issued every 30 minutes, with the page automatically refreshed every 10 minutes)

About weather observations | Map of weather stations | Latest weather observations for NSW | Other Formats
Station Details ID: 071032 Name: THREDBO AWS Lat: -36.49 Lon: 148.29 Height: 1957.0 m
Data from the previous 72 hours. | See also: Recent months at Thredbo Top Station
Date/Time
EDT
Temp
°C
App
Temp
°C
Dew
Point
Rel
Hum
%
Delta-T
°C
Wind Press
QNH
hPa
Press
MSL
hPa
Rain
since 9 am
mm
Dir
 
Spd
km/h
Gust
km/h
Spd
kts
Gust
kts
26/07:00am 3.2 -1.1 -1.5 71 1.9 NNE 11 17 6 9 1014.6 1010.6 0.0
26/06:30am 2.2 -2.0 -1.2 78 1.3 NNE 11 13 6 7 1014.1 1010.1 0.0
26/06:00am 0.5 -2.8 -1.4 87 0.8 NNE 6 9 3 5 1013.8 1009.8 0.0
26/05:30am 0.1 -2.9 -2.1 85 0.8 N 4 7 2 4 1013.5 1009.6 0.0
26/05:00am 0.3 -3.0 -1.0 91 0.5 NNE 6 11 3 6 1013.2 1009.2 0.0
26/04:30am 0.6 -4.0 -1.2 88 0.7 NNE 13 15 7 8 1013.1 1009.1 0.0
26/03:30am 0.4 -3.4 -0.7 92 0.5 N 9 11 5 6 1013.0 1009.0 0.0
26/03:00am 1.1 -2.2 -0.1 92 0.5 NNE 7 11 4 6 1013.0 1009.0 0.0
26/02:30am 1.2 -2.9 -0.3 90 0.6 N 11 15 6 8 1012.7 1008.7 0.0
26/02:00am 2.3 -2.2 -0.4 82 1.1 NNW 13 19 7 10 1012.7 1008.7 0.0
26/01:30am 2.6 -1.9 -0.3 81 1.2 N 13 15 7 8 1012.8 1008.8 0.0
26/01:00am 3.0 -1.4 0.6 84 1.0 N 13 17 7 9 1013.0 1009.0 0.0
26/12:30am 3.3 -0.6 1.2 86 0.9 N 11 13 6 7 1013.1 1009.1 0.0
26/12:00am 5.3 1.2 2.3 81 1.3 NW 13 17 7 9 1013.0 1009.0 0.0
 
Date/Time
EDT
Temp
°C
App
Temp
°C
Dew
Point
Rel
Hum
%
Delta-T
°C
Wind Press
QNH
hPa
Press
MSL
hPa
Rain
since 9 am
mm
Dir
 
Spd
km/h
Gust
km/h
Spd
kts
Gust
kts
25/11:30pm 5.5 1.4 2.3 80 1.4 NW 13 26 7 14 1012.8 1008.8 0.0
25/11:00pm 6.3 1.0 2.8 78 1.6 NW 20 26 11 14 1012.7 1008.7 0.0
25/10:30pm 6.4 1.3 3.0 79 1.5 WNW 19 28 10 15 1012.5 1008.5 0.0
25/10:00pm 6.4 2.8 3.2 80 1.5 WNW 11 20 6 11 1012.2 1008.1 0.0
25/09:30pm 7.0 2.3 3.4 78 1.7 NW 17 28 9 15 1011.8 1007.8 0.0
25/09:00pm 7.6 1.3 3.5 75 1.9 WNW 26 37 14 20 1011.4 1007.3 0.0
25/08:30pm 7.9 0.4 3.4 73 2.1 WNW 32 43 17 23 1010.9 1006.9 0.0
25/08:00pm 8.4 0.8 3.1 69 2.5 WNW 32 44 17 24 1010.6 1006.5 0.0
25/07:30pm 9.0 0.9 3.4 68 2.6 WNW 35 50 19 27 1010.2 1006.1 0.0
25/07:02pm 9.7 0.9 3.7 66 2.8 WNW 39 57 21 31 1009.9 1005.8 0.0
25/07:00pm 9.6 0.3 3.1 64 3.1 WNW 41 57 22 31 1009.9 1005.8 0.0
25/06:43pm 9.9 0.9 2.5 60 3.4 WNW 39 57 21 31 1009.6 1005.6 0.0
25/06:30pm 10.5 2.1 3.5 62 3.3 WNW 37 54 20 29 1009.5 1005.4 0.0
25/06:00pm 10.7 1.3 2.3 56 3.9 WNW 41 59 22 32 1009.1 1005.0 0.0
25/05:30pm 10.9 0.1 1.7 53 4.2 WNW 48 67 26 36 1008.7 1004.6 0.0
25/05:01pm 12.4 3.1 3.1 53 4.5 WNW 41 59 22 32 1008.7 1004.6 0.0
25/05:00pm 12.3 2.5 2.2 50 4.8 WNW 43 59 23 32 1008.7 1004.6 0.0
25/04:30pm 12.3 1.4 -0.9 40 5.8 WNW 46 70 25 38 1008.4 1004.3 0.0
25/04:00pm 12.5 2.2 2.4 50 4.8 WNW 46 65 25 35 1008.2 1004.0 0.0
25/03:30pm 12.0 0.3 1.1 47 5.0 NW 52 70 28 38 1007.9 1003.8 0.0
25/03:00pm 13.1 2.2 1.1 44 5.6 WNW 48 69 26 37 1007.8 1003.7 0.0
25/02:59pm 13.1 1.7 0.5 42 5.7 WNW 50 69 27 37 1007.8 1003.7 0.0
25/02:58pm 12.9 1.6 1.3 45 5.4 NW 50 69 27 37 1007.9 1003.8 0.0
25/02:30pm 12.3 -1.4 -0.6 41 5.7 NW 61 82 33 44 1008.0 1003.9 0.0
25/02:00pm 12.4 -1.3 1.4 47 5.1 NW 63 87 34 47 1008.0 1003.9 0.0
25/01:30pm 12.0 -0.4 4.5 60 3.7 NW 59 85 32 46 1007.9 1003.8 0.0
25/01:00pm 12.1 -0.1 3.6 56 4.1 NW 57 78 31 42 1008.0 1003.9 0.0
25/12:30pm 11.7 -0.7 4.4 61 3.6 NW 59 85 32 46 1008.2 1004.0 0.0
25/12:18pm 11.4 -0.7 3.2 57 3.9 NW 56 91 30 49 1008.2 1004.0 0.0
25/12:00pm 12.1 2.3 5.3 63 3.4 NW 46 65 25 35 1008.0 1003.9 0.0
25/11:30am 11.5 1.6 6.4 71 2.6 NW 48 78 26 42 1008.4 1004.3 0.0
25/11:00am 11.0 -0.6 4.0 62 3.4 WNW 54 72 29 39 1008.0 1003.9 0.0
25/10:30am 10.5 1.0 6.5 76 2.0 NW 46 76 25 41 1008.3 1004.2 0.0
25/10:01am 11.2 3.4 8.1 81 1.6 NW 39 57 21 31 1008.2 1004.0 0.0
25/10:00am 11.1 2.9 8.0 81 1.6 NW 41 57 22 31 1008.2 1004.0 0.0
25/09:32am 10.4 2.7 7.1 80 1.7 NW 37 56 20 30 1007.9 1003.8 0.0
25/09:30am 9.9 1.8 6.8 81 1.6 NW 39 54 21 29 1008.0 1003.9 0.0
25/09:00am 9.1 0.2 6.9 86 1.1 NW 43 65 23 35 1008.0 1003.9 35.8
25/08:30am 9.4 0.0 8.8 96 0.3 NW 48 74 26 40 1007.8 1003.7 35.8
25/08:00am 9.5 1.6 9.4 99 0.1 NW 41 61 22 33 1007.5 1003.3 35.8
25/07:30am 10.4 2.7 10.2 99 0.1 NW 41 67 22 36 1007.2 1003.1 35.8
25/07:19am 10.8 3.6 10.6 99 0.1 NW 39 61 21 33 1007.1 1003.0 35.8
25/07:16am 10.8 3.2 10.6 99 0.1 NW 41 70 22 38 1007.0 1002.9 35.8
25/07:00am 10.9 0.4 10.3 96 0.3 NW 56 82 30 44 1006.9 1002.7 35.8
25/06:30am 10.9 1.6 10.6 98 0.2 NW 50 87 27 47 1006.6 1002.4 35.4
25/06:00am 11.3 1.8 11.1 99 0.1 NW 52 78 28 42 1006.4 1002.3 34.8
25/05:32am 11.0 1.8 10.8 99 0.1 NW 50 69 27 37 1006.6 1002.4 34.8
25/05:30am 11.0 1.4 10.8 99 0.1 NW 52 69 28 37 1006.6 1002.4 34.8
25/05:03am 11.1 1.1 10.9 99 0.1 NW 54 96 29 52 1006.7 1002.5 34.8
25/05:02am 11.1 1.1 10.9 99 0.1 NW 54 96 29 52 1006.6 1002.4 34.8
25/05:00am 11.1 1.1 10.8 98 0.2 NW 54 96 29 52 1006.7 1002.5 34.8
25/04:58am 11.5 3.1 10.9 96 0.3 NW 46 82 25 44 1006.7 1002.5 34.8
25/04:50am 11.1 1.9 10.9 99 0.1 NW 50 80 27 43 1006.7 1002.5 34.8
25/04:44am 11.1 2.7 10.9 99 0.1 NW 46 80 25 43 1006.8 1002.6 34.8
25/04:30am 11.1 4.0 10.9 99 0.1 NW 39 61 21 33 1007.0 1002.9 34.8
25/04:00am 11.2 3.4 11.0 99 0.1 WNW 43 67 23 36 1007.2 1003.1 34.8
25/03:30am 11.3 3.8 11.0 98 0.2 WNW 41 65 22 35 1007.5 1003.3 34.8
25/03:26am 11.2 4.1 11.0 99 0.1 NW 39 65 21 35 1007.4 1003.2 34.8
25/03:25am 11.1 4.4 10.9 99 0.1 NW 37 57 20 31 1007.5 1003.3 34.8
25/03:00am 11.8 3.3 10.7 93 0.6 NNW 46 69 25 37 1007.2 1003.1 33.0
25/02:30am 12.1 4.4 10.0 87 1.2 NNW 41 65 22 35 1007.9 1003.8 33.0
25/02:11am 12.2 3.5 9.8 85 1.3 NW 46 67 25 36 1008.3 1004.2 33.0
25/02:00am 11.7 3.7 11.1 96 0.3 NNW 44 57 24 31 1008.6 1004.5 33.0
25/01:30am 11.8 3.8 11.0 95 0.4 NNW 44 59 24 32 1009.1 1005.0 33.0
25/01:25am 11.9 3.6 11.3 96 0.3 NW 46 65 25 35 1009.1 1005.0 33.0
25/01:00am 12.1 3.5 11.5 96 0.3 NW 48 63 26 34 1009.1 1005.0 33.0
25/12:52am 12.2 4.3 11.4 95 0.5 NW 44 63 24 34 1009.2 1005.1 33.0
25/12:30am 12.2 4.0 11.6 96 0.3 NW 46 61 25 33 1009.6 1005.6 33.0
25/12:13am 12.1 4.9 11.8 98 0.2 NW 41 59 22 32 1009.8 1005.7 33.0
25/12:00am 12.1 5.2 11.5 96 0.3 NW 39 56 21 30 1009.9 1005.8 33.0
 
Date/Time
EDT
Temp
°C
App
Temp
°C
Dew
Point
Rel
Hum
%
Delta-T
°C
Wind Press
QNH
hPa
Press
MSL
hPa
Rain
since 9 am
mm
Dir
 
Spd
km/h
Gust
km/h
Spd
kts
Gust
kts
24/11:59pm 12.2 5.6 11.3 94 0.5 NW 37 56 20 30 1010.0 1005.9 33.0
24/11:30pm 11.9 5.2 11.1 95 0.4 NNW 37 46 20 25 1009.8 1005.7 33.0
24/11:00pm 11.9 5.1 10.8 93 0.6 NW 37 46 20 25 1010.0 1005.9 33.0
24/10:30pm 11.9 6.5 10.8 93 0.6 NNW 30 37 16 20 1010.2 1006.1 33.0
24/10:00pm 11.8 7.5 10.7 93 0.6 NNW 24 32 13 17 1010.7 1006.6 33.0
24/09:30pm 12.0 8.5 10.2 89 1.0 NNW 19 24 10 13 1010.6 1006.5 33.0
24/09:00pm 12.1 8.5 10.0 87 1.2 NNW 19 22 10 12 1010.7 1006.6 33.0
24/08:30pm 12.7 9.1 9.7 82 1.6 NNW 19 26 10 14 1010.8 1006.7 33.0
24/08:00pm 12.6 9.8 10.0 84 1.4 NNW 15 24 8 13 1010.7 1006.6 33.0
24/07:30pm 13.0 8.8 9.8 81 1.8 NW 22 32 12 17 1009.9 1005.8 33.0
24/07:00pm 12.8 7.4 11.0 89 1.0 NW 30 41 16 22 1009.2 1005.1 33.0
24/06:30pm 12.5 5.6 10.2 86 1.3 NW 37 48 20 26 1009.6 1005.6 33.0
24/06:00pm 12.4 6.5 11.1 92 0.7 NW 33 46 18 25 1010.3 1006.3 32.6
24/05:54pm 12.5 8.8 11.6 94 0.5 NW 22 39 12 21 1010.4 1006.4 32.2
24/05:30pm 12.6 10.6 11.5 93 0.6 NW 13 20 7 11 1010.7 1006.6 32.0
24/05:00pm 11.4 7.9 10.9 97 0.3 NNW 20 28 11 15 1011.4 1007.3 30.4
24/04:51pm 11.5 6.8 10.6 94 0.5 NW 26 57 14 31 1011.9 1007.9 28.6
24/04:50pm 11.4 6.6 10.3 93 0.6 NW 26 57 14 31 1011.8 1007.8 28.4
24/04:37pm 12.0 4.6 9.7 86 1.3 WNW 39 57 21 31 1011.9 1007.9 23.0
24/04:31pm 11.9 4.9 11.4 97 0.3 NW 39 57 21 31 1011.9 1007.9 20.0
24/04:30pm 12.0 5.4 11.5 97 0.3 NW 37 50 20 27 1011.9 1007.9 18.8
24/04:00pm 9.9 1.5 8.8 93 0.6 WNW 43 65 23 35 1011.9 1007.9 6.6
24/03:49pm 11.2 5.3 9.1 87 1.1 NW 30 69 16 37 1010.9 1006.9 0.2
24/03:34pm 14.1 9.3 12.8 92 0.8 NW 30 48 16 26 1010.6 1006.5 0.0
24/03:30pm 14.1 8.9 12.7 91 0.8 NW 32 48 17 26 1010.7 1006.6 0.0
24/03:27pm 14.1 9.2 12.7 91 0.8 NW 30 48 16 26 1010.7 1006.6 0.0
24/03:00pm 14.5 10.0 12.5 88 1.2 NNW 28 43 15 23 1010.6 1006.5 0.0
24/02:30pm 16.0 12.0 12.9 82 1.8 NNW 26 39 14 21 1010.9 1006.9 0.0
24/02:00pm 15.3 11.9 12.4 83 1.7 NNW 22 32 12 17 1011.1 1007.1 0.0
24/01:30pm 15.0 11.0 13.0 88 1.2 NNW 26 35 14 19 1011.9 1007.9 0.0
24/01:00pm 13.9 8.8 11.8 87 1.2 NNW 30 37 16 20 1012.3 1008.3 0.0
24/12:30pm 14.4 8.7 11.7 84 1.6 NNW 33 43 18 23 1012.5 1008.5 0.0
24/12:00pm 14.5 7.2 11.6 83 1.7 NNW 41 52 22 28 1012.6 1008.6 0.0
24/11:30am 14.4 7.2 11.9 85 1.4 NNW 41 54 22 29 1012.6 1008.6 0.0
24/11:00am 14.1 7.1 11.4 84 1.5 NNW 39 52 21 28 1012.7 1008.7 0.0
24/10:30am 14.7 7.8 11.7 82 1.7 NNW 39 52 21 28 1012.5 1008.5 0.0
24/10:00am 14.3 6.9 11.1 81 1.8 NNW 41 54 22 29 1012.6 1008.6 0.0
24/09:30am 14.2 6.4 11.0 81 1.8 NNW 43 54 23 29 1012.4 1008.4 0.0
24/09:00am 13.9 8.1 10.9 82 1.7 NNW 32 43 17 23 1012.5 1008.5 10.2
24/08:30am 13.6 7.5 10.6 82 1.7 NNW 33 43 18 23 1012.6 1008.6 10.2
24/08:00am 13.5 6.3 10.5 82 1.7 NNW 39 48 21 26 1012.3 1008.3 10.2
24/07:30am 13.4 6.2 10.4 82 1.7 NNW 39 44 21 24 1012.2 1008.1 10.2
24/07:00am 13.2 6.3 10.4 83 1.6 NNW 37 43 20 23 1011.9 1007.9 10.2
24/06:30am 13.7 6.4 10.3 80 1.9 NW 39 43 21 23 1011.7 1007.7 10.2
24/06:00am 12.8 6.6 10.2 84 1.4 NNW 33 41 18 22 1011.9 1007.9 10.2
24/05:30am 14.3 6.0 9.5 73 2.6 NW 43 54 23 29 1011.6 1007.6 10.2
24/05:00am 14.5 6.5 10.3 76 2.4 NW 43 50 23 27 1011.5 1007.4 10.2
24/04:30am 14.4 7.6 10.6 78 2.1 NW 37 44 20 24 1011.7 1007.7 10.2
24/04:00am 14.3 9.2 10.7 79 2.0 NW 28 33 15 18 1011.7 1007.7 10.2
24/03:30am 13.7 6.9 10.7 82 1.7 NNW 37 43 20 23 1012.2 1008.1 10.2
24/03:00am 14.2 6.6 10.4 78 2.1 NNW 41 44 22 24 1012.4 1008.4 10.2
24/02:30am 13.3 6.9 10.8 85 1.4 NNW 35 41 19 22 1012.8 1008.8 10.2
24/02:00am 13.0 7.7 11.4 90 0.9 N 30 41 16 22 1013.2 1009.2 10.2
24/01:30am 12.8 8.7 11.5 92 0.7 N 24 30 13 16 1013.6 1009.7 10.0
24/01:00am 12.1 7.8 10.8 92 0.7 NNW 24 33 13 18 1013.8 1009.8 9.8
24/12:30am 13.4 5.8 10.4 82 1.7 NNW 41 44 22 24 1013.8 1009.8 8.4
24/12:00am 13.7 7.8 10.3 80 1.9 NNW 32 35 17 19 1014.2 1010.3 8.2
 
Date/Time
EDT
Temp
°C
App
Temp
°C
Dew
Point
Rel
Hum
%
Delta-T
°C
Wind Press
QNH
hPa
Press
MSL
hPa
Rain
since 9 am
mm
Dir
 
Spd
km/h
Gust
km/h
Spd
kts
Gust
kts
23/11:30pm 12.5 9.3 12.0 97 0.3 N 20 24 11 13 1014.2 1010.3 8.2
23/11:00pm 12.3 9.1 12.0 98 0.2 NNW 20 22 11 12 1014.3 1010.4 8.2
23/10:30pm 12.9 10.8 11.1 89 1.0 N 13 19 7 10 1014.4 1010.5 8.2
23/10:00pm 13.8 10.7 10.4 80 1.9 WSW 17 22 9 12 1014.7 1010.7 8.0
23/09:30pm 13.7 12.9 11.7 88 1.1 SW 7 19 4 10 1014.7 1010.7 8.0
23/09:00pm 13.2 11.5 11.1 87 1.2 N 11 13 6 7 1014.0 1010.0 8.0
23/08:30pm 13.1 11.6 12.0 93 0.6 N 11 15 6 8 1013.9 1009.9 8.0
23/08:00pm 12.4 10.9 10.5 88 1.1 NW 9 20 5 11 1014.3 1010.4 7.8
23/07:45pm 12.1 6.2 11.0 93 0.6 W 33 52 18 28 1014.7 1010.7 6.4
23/07:30pm 13.6 8.8 13.0 96 0.4 W 30 48 16 26 1013.9 1009.9 1.2
23/07:00pm 15.2 11.6 11.8 80 2.0 NW 22 33 12 18 1012.4 1008.4 0.0
23/06:30pm 16.0 11.9 11.6 75 2.5 WNW 24 35 13 19 1011.9 1007.9 0.0
23/06:00pm 16.5 11.8 12.1 75 2.6 WNW 28 35 15 19 1011.2 1007.2 0.0
23/05:30pm 16.5 10.4 11.9 74 2.7 NW 35 44 19 24 1011.5 1007.4 0.0
23/05:00pm 18.4 12.9 11.9 66 3.8 WNW 32 44 17 24 1011.7 1007.7 0.0
23/04:30pm 18.9 13.4 12.4 66 3.9 NW 33 41 18 22 1011.7 1007.7 0.0
23/04:00pm 18.5 12.6 12.5 68 3.6 NW 35 48 19 26 1011.7 1007.7 0.0
23/03:30pm 17.8 11.4 12.0 69 3.4 NW 37 54 20 29 1011.9 1007.9 0.0
23/03:06pm 18.2 12.6 12.0 67 3.7 NW 33 54 18 29 1012.6 1008.6 0.0
23/03:00pm 18.1 12.6 11.9 67 3.6 WNW 32 46 17 25 1012.7 1008.7 0.0
23/02:30pm 17.5 12.0 11.8 69 3.3 NW 32 46 17 25 1013.0 1009.0 0.0
23/02:00pm 17.7 10.9 11.9 69 3.4 WNW 39 50 21 27 1013.4 1009.4 0.0
23/01:51pm 17.3 10.9 12.0 71 3.1 WNW 37 56 20 30 1013.4 1009.4 0.0
23/01:30pm 17.4 9.9 12.1 71 3.1 NW 43 56 23 30 1013.4 1009.4 0.0
23/01:00pm 17.0 10.2 12.1 73 2.9 NW 39 57 21 31 1013.8 1009.8 0.0
23/12:31pm 16.6 9.3 11.7 73 2.9 NW 41 59 22 32 1014.2 1010.3 0.0
23/12:30pm 16.9 9.4 12.0 73 2.9 NW 43 59 23 32 1014.1 1010.1 0.0
23/12:21pm 16.9 10.0 11.6 71 3.1 NW 39 59 21 32 1014.1 1010.1 0.0
23/12:00pm 16.5 9.8 12.3 76 2.5 NW 39 48 21 26 1014.2 1010.3 0.0
23/11:30am 16.1 8.7 11.3 73 2.8 NW 41 54 22 29 1014.3 1010.4 0.0
23/11:09am 16.7 9.3 12.5 76 2.5 NW 43 61 23 33 1014.3 1010.4 0.0
23/11:00am 16.0 8.1 11.6 75 2.5 NW 44 56 24 30 1014.3 1010.4 0.0
23/10:30am 16.2 8.3 11.4 73 2.8 NW 44 59 24 32 1014.2 1010.3 0.0
23/10:00am 15.7 7.8 11.3 75 2.5 NW 44 57 24 31 1014.2 1010.3 0.0
23/09:30am 14.7 5.5 10.9 78 2.2 NNW 50 63 27 34 1014.2 1010.3 0.0
23/09:00am 14.7 5.4 10.7 77 2.3 NW 50 59 27 32 1014.4 1010.5 0.0
23/08:30am 14.5 6.6 10.7 78 2.1 NW 43 56 23 30 1014.7 1010.7 0.0
23/08:00am 14.1 6.0 10.7 80 1.9 NNW 44 54 24 29 1014.6 1010.6 0.0
23/07:30am 13.6 5.4 10.4 81 1.8 NNW 44 56 24 30 1014.4 1010.5 0.0

Other Formats:

Comma delimited format used in spreadsheet applications
http://www.bom.gov.au/fwo/IDN60801/IDN60801.95909.axf

JavaScript Object Notation format (JSON) in row-major order
http://www.bom.gov.au/fwo/IDN60801/IDN60801.95909.json